createdAt,value
2022-09-21T00:02:55.006Z,6.73
2022-09-21T00:08:02.339Z,6.73
2022-09-21T00:13:09.394Z,6.29
2022-09-21T00:18:16.604Z,6.29
2022-09-21T00:23:24.000Z,6.29
2022-09-21T00:28:31.018Z,6.29
2022-09-21T00:33:38.182Z,6.29
2022-09-21T00:38:45.451Z,6.29
2022-09-21T00:43:52.621Z,6.29
2022-09-21T00:48:59.868Z,6.29
2022-09-21T00:54:07.174Z,6.29
2022-09-21T00:59:14.346Z,6.29
2022-09-21T01:04:21.550Z,6.29
2022-09-21T01:09:28.753Z,6.29
2022-09-21T01:14:36.039Z,6.29
2022-09-21T01:19:43.229Z,6.29
2022-09-21T01:24:50.513Z,6.29
2022-09-21T01:29:57.674Z,6.29
2022-09-21T01:35:04.921Z,6.29
2022-09-21T01:40:12.180Z,6.29
2022-09-21T01:45:19.339Z,6.29
2022-09-21T01:50:26.596Z,6.29
2022-09-21T01:55:33.913Z,6.29
2022-09-21T02:00:41.140Z,6.29
2022-09-21T02:05:48.307Z,6.29
2022-09-21T02:10:55.542Z,6.29
2022-09-21T02:16:02.798Z,6.29
2022-09-21T02:21:09.876Z,6.29
2022-09-21T02:26:17.149Z,6.29
2022-09-21T02:31:24.422Z,6.29
2022-09-21T02:36:31.651Z,6.29
2022-09-21T02:41:38.936Z,6.29
2022-09-21T02:46:46.182Z,6.29
2022-09-21T02:51:53.368Z,6.29
2022-09-21T02:57:00.655Z,6.29
2022-09-21T03:02:07.803Z,6.29
2022-09-21T03:07:14.989Z,6.29
2022-09-21T03:12:22.214Z,6.29
2022-09-21T03:17:29.450Z,6.29
2022-09-21T03:22:36.638Z,6.29
2022-09-21T03:27:43.908Z,6.29
2022-09-21T03:32:51.222Z,6.29
2022-09-21T03:37:58.406Z,6.29
2022-09-21T03:43:05.678Z,6.29
2022-09-21T03:48:12.841Z,6.29
2022-09-21T03:53:20.061Z,6.29
2022-09-21T03:58:27.236Z,6.29
2022-09-21T04:03:34.452Z,6.29
2022-09-21T04:08:43.679Z,5.85
2022-09-21T04:13:48.815Z,5.85
2022-09-21T04:18:56.045Z,5.85
2022-09-21T04:24:03.213Z,5.85
2022-09-21T04:29:10.636Z,5.85
2022-09-21T04:34:17.638Z,5.85
2022-09-21T04:39:24.911Z,4.98
2022-09-21T04:44:32.222Z,4.98
2022-09-21T04:49:39.332Z,4.98
2022-09-21T04:54:46.593Z,4.98
2022-09-21T04:59:53.890Z,4.98
2022-09-21T05:05:01.119Z,4.98
2022-09-21T05:10:08.301Z,4.98
2022-09-21T05:15:15.528Z,4.98
2022-09-21T05:20:22.751Z,4.98
2022-09-21T05:25:29.932Z,4.98
2022-09-21T05:30:37.184Z,4.98
2022-09-21T05:35:44.377Z,4.98
2022-09-21T05:40:51.641Z,4.98
2022-09-21T05:45:58.955Z,4.98
2022-09-21T05:51:06.165Z,4.98
2022-09-21T05:56:13.352Z,4.98
2022-09-21T06:01:20.617Z,4.98
2022-09-21T06:06:27.860Z,4.98
2022-09-21T06:11:35.080Z,4.98
2022-09-21T06:16:42.422Z,4.98
2022-09-21T06:21:49.501Z,4.98
2022-09-21T06:26:56.760Z,4.98
2022-09-21T06:32:03.966Z,4.98
2022-09-21T06:37:11.245Z,4.98
2022-09-21T06:42:18.455Z,4.98
2022-09-21T06:47:25.773Z,4.98
2022-09-21T06:52:32.899Z,4.98
2022-09-21T06:57:40.135Z,4.98
2022-09-21T07:02:47.327Z,4.98
2022-09-21T07:07:54.477Z,4.98
2022-09-21T07:13:01.717Z,4.98
2022-09-21T07:18:08.951Z,4.98
2022-09-21T07:23:16.096Z,4.98
2022-09-21T07:28:23.296Z,4.98
2022-09-21T07:33:35.228Z,4.98
2022-09-21T07:38:37.675Z,4.98
2022-09-21T07:43:44.818Z,4.98
2022-09-21T07:48:52.069Z,4.98
2022-09-21T07:53:59.210Z,4.98
2022-09-21T07:59:06.501Z,4.98
2022-09-21T08:04:13.698Z,4.98
2022-09-21T08:09:20.864Z,4.98
2022-09-21T08:14:28.088Z,4.98
2022-09-21T08:19:35.321Z,4.98
2022-09-21T08:24:42.468Z,4.98
2022-09-21T08:29:49.730Z,5.41
2022-09-21T08:34:56.977Z,5.41
2022-09-21T08:40:04.268Z,5.83
2022-09-21T08:45:11.461Z,6.23
2022-09-21T08:50:18.813Z,6.23
2022-09-21T08:55:26.045Z,6.23
2022-09-21T09:00:33.399Z,5.83
2022-09-21T09:05:40.585Z,6.71
2022-09-21T09:10:47.954Z,6.71
2022-09-21T09:15:55.231Z,6.71
2022-09-21T09:21:02.394Z,6.29
2022-09-21T09:26:09.549Z,6.29
2022-09-21T09:31:16.812Z,6.29
2022-09-21T09:36:46.647Z,6.71
2022-09-21T09:41:31.274Z,6.29
2022-09-21T09:46:38.596Z,5.85
2022-09-21T09:51:45.956Z,5.85
2022-09-21T09:56:53.163Z,5.85
2022-09-21T10:02:00.397Z,5.85
2022-09-21T10:07:07.733Z,5.85
2022-09-21T10:12:14.806Z,5.85
2022-09-21T10:17:22.002Z,5.85
2022-09-21T10:22:29.188Z,5.85
2022-09-21T10:27:36.420Z,5.85
2022-09-21T10:32:43.683Z,5.85
2022-09-21T10:37:56.698Z,5.85
2022-09-21T10:43:03.828Z,5.85
2022-09-21T10:48:11.104Z,5.85
2022-09-21T10:53:18.299Z,5.85
2022-09-21T10:58:25.440Z,5.85
2022-09-21T11:03:32.607Z,5.85
2022-09-21T11:08:39.877Z,5.85
2022-09-21T11:13:47.007Z,5.85
2022-09-21T11:18:54.215Z,5.85
2022-09-21T11:24:01.430Z,5.85
2022-09-21T11:29:08.569Z,5.85
2022-09-21T11:34:15.848Z,5.85
2022-09-21T11:39:23.166Z,5.85
2022-09-21T11:44:30.362Z,5.41
2022-09-21T11:49:37.628Z,5.41
2022-09-21T11:54:44.871Z,4.95
2022-09-21T11:59:52.098Z,4.95
2022-09-21T12:04:59.427Z,4.95
2022-09-21T12:10:10.285Z,5.41
2022-09-21T12:15:13.948Z,5.41
2022-09-21T12:20:21.492Z,5.41
2022-09-21T12:25:28.842Z,4.95
2022-09-21T12:30:36.062Z,4.95
2022-09-21T12:35:43.408Z,4.48
2022-09-21T12:40:50.560Z,4.48
2022-09-21T12:45:57.791Z,4.48
2022-09-21T12:51:06.261Z,4.48
2022-09-21T12:56:12.148Z,4.95
2022-09-21T13:01:19.501Z,4.95
2022-09-21T13:06:26.520Z,4.95
2022-09-21T13:11:33.756Z,4.95
2022-09-21T13:16:41.030Z,4.48
2022-09-21T13:21:48.125Z,4.95
2022-09-21T13:26:55.385Z,4.95
2022-09-21T13:32:02.640Z,4.95
2022-09-21T13:37:09.850Z,4.48
2022-09-21T13:42:17.009Z,4.95
2022-09-21T13:47:24.214Z,4.48
2022-09-21T13:52:31.444Z,4.48
2022-09-21T13:57:38.656Z,4.48
2022-09-21T14:02:45.895Z,4.48
2022-09-21T14:07:52.972Z,4.48
2022-09-21T14:13:00.167Z,4.48
2022-09-21T14:18:07.376Z,3.62
2022-09-21T14:23:14.589Z,4.48
2022-09-21T14:28:21.848Z,4.48
2022-09-21T14:33:29.005Z,4.95
2022-09-21T14:38:36.227Z,4.95
2022-09-21T14:43:43.407Z,4.95
2022-09-21T14:48:50.634Z,4.95
2022-09-21T14:53:57.942Z,4.95
2022-09-21T14:59:05.097Z,4.95
2022-09-21T15:04:12.336Z,4.95
2022-09-21T15:09:19.580Z,4.95
2022-09-21T15:14:26.839Z,4.95
2022-09-21T15:19:34.065Z,4.95
2022-09-21T15:24:41.359Z,4.95
2022-09-21T15:29:48.633Z,4.95
2022-09-21T15:34:56.087Z,4.08
2022-09-21T15:40:03.552Z,4.08
2022-09-21T15:45:10.716Z,4.08
2022-09-21T15:50:17.959Z,4.08
2022-09-21T15:55:25.152Z,4.08
2022-09-21T16:00:32.543Z,4.08
2022-09-21T16:05:39.879Z,4.08
2022-09-21T16:10:47.116Z,4.08
2022-09-21T16:15:54.498Z,4.54
2022-09-21T16:21:01.578Z,4.54
2022-09-21T16:26:08.793Z,4.54
2022-09-21T16:31:16.132Z,4.54
2022-09-21T16:36:23.269Z,4.54
2022-09-21T16:41:30.454Z,4.54
2022-09-21T16:46:37.694Z,4.54
2022-09-21T16:51:44.864Z,4.98
2022-09-21T16:56:52.073Z,5.85
2022-09-21T17:01:59.370Z,5.85
2022-09-21T17:07:06.492Z,5.85
2022-09-21T17:12:13.684Z,5.85
2022-09-21T17:17:20.908Z,5.85
2022-09-21T17:22:28.112Z,5.41
2022-09-21T17:27:35.297Z,5.41
2022-09-21T17:32:42.512Z,5.41
2022-09-21T17:37:49.739Z,5.41
2022-09-21T17:42:56.912Z,4.54
2022-09-21T17:48:04.130Z,4.54
2022-09-21T17:53:11.317Z,4.54
2022-09-21T17:58:18.568Z,4.54
2022-09-21T18:03:25.803Z,4.54
2022-09-21T18:08:33.039Z,4.98
2022-09-21T18:13:40.259Z,5.85
2022-09-21T18:18:47.504Z,5.41
2022-09-21T18:23:54.698Z,5.41
2022-09-21T18:29:12.627Z,5.41
2022-09-21T18:34:09.377Z,5.41
2022-09-21T18:39:16.966Z,5.41
2022-09-21T18:44:24.467Z,5.85
2022-09-21T18:49:31.714Z,5.85
2022-09-21T18:54:38.904Z,5.85
2022-09-21T18:59:46.114Z,5.85
2022-09-21T19:04:53.351Z,5.85
2022-09-21T19:10:00.827Z,5.85
2022-09-21T19:15:12.115Z,5.85
2022-09-21T19:20:15.391Z,4.98
2022-09-21T19:25:22.640Z,4.98
2022-09-21T19:30:30.415Z,4.98
2022-09-21T19:35:37.673Z,4.98
2022-09-21T19:40:44.971Z,4.98
2022-09-21T19:45:52.285Z,5.85
2022-09-21T19:50:59.399Z,5.85
2022-09-21T19:56:06.587Z,5.85
2022-09-21T20:01:13.824Z,5.85
2022-09-21T20:06:20.985Z,5.85
2022-09-21T20:11:28.141Z,5.85
2022-09-21T20:16:35.433Z,5.85
2022-09-21T20:21:42.608Z,5.85
2022-09-21T20:26:49.841Z,5.85
2022-09-21T20:31:57.113Z,5.85
2022-09-21T20:37:04.392Z,5.85
2022-09-21T20:42:11.530Z,5.85
2022-09-21T20:47:18.694Z,5.85
2022-09-21T20:52:25.854Z,5.85
2022-09-21T20:57:33.136Z,5.85
2022-09-21T21:02:40.376Z,5.85
2022-09-21T21:07:47.675Z,5.85
2022-09-21T21:12:54.850Z,5.85
2022-09-21T21:18:02.060Z,5.85
2022-09-21T21:23:09.282Z,5.85
2022-09-21T21:28:16.494Z,5.85
2022-09-21T21:33:23.668Z,5.41
2022-09-21T21:38:31.621Z,5.41
2022-09-21T21:43:38.820Z,5.41
2022-09-21T21:48:46.112Z,5.41
2022-09-21T21:53:53.304Z,5.41
2022-09-21T21:59:00.482Z,5.41
2022-09-21T22:04:07.819Z,5.41
2022-09-21T22:09:15.057Z,5.41
2022-09-21T22:14:22.157Z,5.41
2022-09-21T22:19:29.382Z,5.41
2022-09-21T22:24:36.644Z,5.41
2022-09-21T22:29:43.847Z,5.41
2022-09-21T22:34:51.079Z,5.41
2022-09-21T22:39:58.334Z,5.41
2022-09-21T22:45:05.564Z,5.41
2022-09-21T22:50:12.770Z,4.95
2022-09-21T22:55:20.024Z,4.95
2022-09-21T23:00:27.321Z,5.41
2022-09-21T23:05:34.477Z,5.41
2022-09-21T23:10:41.729Z,5.41
2022-09-21T23:15:48.914Z,5.41
2022-09-21T23:20:56.128Z,5.41
2022-09-21T23:26:03.394Z,5.41
2022-09-21T23:31:10.631Z,5.41
2022-09-21T23:36:17.860Z,5.41
2022-09-21T23:41:25.205Z,5.41
2022-09-21T23:46:32.483Z,5.41
2022-09-21T23:51:39.577Z,5.41
2022-09-21T23:56:46.878Z,5.41
